sensor_id;sensor_type;location;lat;lon;timestamp;pressure;altitude;pressure_sealevel;temperature;humidity
5284;BME280;15377;48.540;9.268;2023-10-13T00:00:56;97588.88;;;16.13;100.00
5284;BME280;15377;48.540;9.268;2023-10-13T00:03:23;97592.16;;;16.06;100.00
5284;BME280;15377;48.540;9.268;2023-10-13T00:05:48;97607.53;;;16.07;100.00
5284;BME280;15377;48.540;9.268;2023-10-13T00:08:18;97609.31;;;15.99;100.00
5284;BME280;15377;48.540;9.268;2023-10-13T00:10:43;97600.22;;;16.04;100.00
5284;BME280;15377;48.540;9.268;2023-10-13T00:13:09;97595.94;;;16.03;100.00
5284;BME280;15377;48.540;9.268;2023-10-13T00:15:47;97593.66;;;16.02;100.00
5284;BME280;15377;48.540;9.268;2023-10-13T00:18:29;97602.00;;;16.02;100.00
5284;BME280;15377;48.540;9.268;2023-10-13T00:21:08;97593.91;;;15.87;100.00
5284;BME280;15377;48.540;9.268;2023-10-13T00:23:45;97602.44;;;15.73;100.00
5284;BME280;15377;48.540;9.268;2023-10-13T00:26:23;97600.41;;;15.62;100.00
5284;BME280;15377;48.540;9.268;2023-10-13T00:28:52;97582.44;;;15.47;100.00
5284;BME280;15377;48.540;9.268;2023-10-13T00:31:25;97587.50;;;15.43;100.00
5284;BME280;15377;48.540;9.268;2023-10-13T00:34:02;97591.53;;;15.42;100.00
5284;BME280;15377;48.540;9.268;2023-10-13T00:36:36;97589.97;;;15.41;100.00
5284;BME280;15377;48.540;9.268;2023-10-13T00:39:02;97588.75;;;15.42;100.00
5284;BME280;15377;48.540;9.268;2023-10-13T00:41:31;97575.81;;;15.28;100.00
5284;BME280;15377;48.540;9.268;2023-10-13T00:44:16;97590.41;;;15.28;100.00
5284;BME280;15377;48.540;9.268;2023-10-13T00:46:43;97574.78;;;15.20;100.00
5284;BME280;15377;48.540;9.268;2023-10-13T00:49:11;97578.28;;;15.20;100.00
5284;BME280;15377;48.540;9.268;2023-10-13T00:51:41;97574.25;;;15.21;100.00
5284;BME280;15377;48.540;9.268;2023-10-13T00:54:12;97574.94;;;15.05;100.00
5284;BME280;15377;48.540;9.268;2023-10-13T00:56:40;97569.09;;;14.92;100.00
5284;BME280;15377;48.540;9.268;2023-10-13T00:59:15;97583.69;;;14.87;100.00
5284;BME280;15377;48.540;9.268;2023-10-13T01:01:41;97576.38;;;14.84;100.00
5284;BME280;15377;48.540;9.268;2023-10-13T01:04:10;97577.66;;;14.89;100.00
5284;BME280;15377;48.540;9.268;2023-10-13T01:06:38;97575.91;;;14.91;100.00
5284;BME280;15377;48.540;9.268;2023-10-13T01:09:05;97575.91;;;14.91;100.00
5284;BME280;15377;48.540;9.268;2023-10-13T01:14:13;97567.94;;;14.68;100.00
5284;BME280;15377;48.540;9.268;2023-10-13T01:16:42;97574.19;;;14.58;100.00
5284;BME280;15377;48.540;9.268;2023-10-13T01:19:14;97576.69;;;14.56;100.00
5284;BME280;15377;48.540;9.268;2023-10-13T01:21:48;97577.59;;;14.42;100.00
5284;BME280;15377;48.540;9.268;2023-10-13T01:24:14;97572.00;;;14.31;100.00
5284;BME280;15377;48.540;9.268;2023-10-13T01:26:40;97565.91;;;14.27;100.00
5284;BME280;15377;48.540;9.268;2023-10-13T01:29:08;97562.88;;;14.25;100.00
5284;BME280;15377;48.540;9.268;2023-10-13T01:31:41;97563.88;;;14.22;100.00
5284;BME280;15377;48.540;9.268;2023-10-13T01:34:16;97557.34;;;14.25;100.00
5284;BME280;15377;48.540;9.268;2023-10-13T01:36:56;97566.63;;;14.22;100.00
5284;BME280;15377;48.540;9.268;2023-10-13T01:39:30;97560.09;;;14.25;100.00
5284;BME280;15377;48.540;9.268;2023-10-13T01:41:56;97558.81;;;14.20;100.00
5284;BME280;15377;48.540;9.268;2023-10-13T01:44:25;97559.00;;;14.17;100.00
5284;BME280;15377;48.540;9.268;2023-10-13T01:46:57;97559.63;;;14.01;100.00
5284;BME280;15377;48.540;9.268;2023-10-13T01:49:33;97555.75;;;13.87;100.00
5284;BME280;15377;48.540;9.268;2023-10-13T01:52:08;97567.03;;;13.84;100.00
5284;BME280;15377;48.540;9.268;2023-10-13T01:54:37;97551.34;;;13.75;100.00
5284;BME280;15377;48.540;9.268;2023-10-13T01:57:08;97562.63;;;13.72;100.00
5284;BME280;15377;48.540;9.268;2023-10-13T01:59:38;97563.44;;;13.78;100.00
5284;BME280;15377;48.540;9.268;2023-10-13T02:02:11;97556.97;;;13.81;100.00
5284;BME280;15377;48.540;9.268;2023-10-13T02:04:44;97575.78;;;13.77;100.00
5284;BME280;15377;48.540;9.268;2023-10-13T02:07:21;97557.09;;;13.72;100.00
5284;BME280;15377;48.540;9.268;2023-10-13T02:09:51;97569.41;;;13.71;100.00
5284;BME280;15377;48.540;9.268;2023-10-13T02:12:20;97558.78;;;13.64;100.00
5284;BME280;15377;48.540;9.268;2023-10-13T02:14:50;97558.22;;;13.54;100.00
5284;BME280;15377;48.540;9.268;2023-10-13T02:17:16;97558.25;;;13.60;100.00
5284;BME280;15377;48.540;9.268;2023-10-13T02:19:42;97550.66;;;13.55;100.00
5284;BME280;15377;48.540;9.268;2023-10-13T02:22:11;97557.91;;;13.52;100.00
5284;BME280;15377;48.540;9.268;2023-10-13T02:24:37;97539.50;;;13.44;100.00
5284;BME280;15377;48.540;9.268;2023-10-13T02:27:07;97534.72;;;13.44;100.00
5284;BME280;15377;48.540;9.268;2023-10-13T02:29:42;97529.09;;;13.59;100.00
5284;BME280;15377;48.540;9.268;2023-10-13T02:32:10;97531.69;;;13.68;100.00
5284;BME280;15377;48.540;9.268;2023-10-13T02:34:44;97532.38;;;13.63;100.00
5284;BME280;15377;48.540;9.268;2023-10-13T02:37:11;97533.41;;;13.65;100.00
5284;BME280;15377;48.540;9.268;2023-10-13T02:39:37;97536.22;;;13.71;100.00
5284;BME280;15377;48.540;9.268;2023-10-13T02:42:06;97515.09;;;13.68;100.00
5284;BME280;15377;48.540;9.268;2023-10-13T02:44:33;97524.34;;;13.90;100.00
5284;BME280;15377;48.540;9.268;2023-10-13T02:47:02;97517.88;;;13.99;100.00
5284;BME280;15377;48.540;9.268;2023-10-13T02:49:31;97520.44;;;14.08;100.00
5284;BME280;15377;48.540;9.268;2023-10-13T02:51:59;97515.91;;;14.05;100.00
5284;BME280;15377;48.540;9.268;2023-10-13T02:54:29;97507.31;;;14.03;100.00
5284;BME280;15377;48.540;9.268;2023-10-13T02:56:56;97499.00;;;13.97;100.00
5284;BME280;15377;48.540;9.268;2023-10-13T02:59:26;97491.66;;;13.89;100.00
5284;BME280;15377;48.540;9.268;2023-10-13T03:02:12;97500.94;;;13.91;100.00
5284;BME280;15377;48.540;9.268;2023-10-13T03:04:54;97487.47;;;13.73;100.00
5284;BME280;15377;48.540;9.268;2023-10-13T03:07:33;97488.31;;;13.54;100.00
5284;BME280;15377;48.540;9.268;2023-10-13T03:10:02;97495.69;;;13.37;100.00
5284;BME280;15377;48.540;9.268;2023-10-13T03:12:35;97492.53;;;13.24;100.00
5284;BME280;15377;48.540;9.268;2023-10-13T03:15:01;97483.88;;;13.11;100.00
5284;BME280;15377;48.540;9.268;2023-10-13T03:17:47;97485.19;;;13.15;100.00
5284;BME280;15377;48.540;9.268;2023-10-13T03:20:14;97481.47;;;13.24;100.00
5284;BME280;15377;48.540;9.268;2023-10-13T03:22:42;97485.63;;;13.34;100.00
5284;BME280;15377;48.540;9.268;2023-10-13T03:25:12;97485.38;;;13.37;100.00
5284;BME280;15377;48.540;9.268;2023-10-13T03:28:04;97482.13;;;13.39;100.00
5284;BME280;15377;48.540;9.268;2023-10-13T03:30:30;97462.78;;;13.39;100.00
5284;BME280;15377;48.540;9.268;2023-10-13T03:33:07;97477.72;;;13.52;100.00
5284;BME280;15377;48.540;9.268;2023-10-13T03:35:36;97463.28;;;13.37;100.00
5284;BME280;15377;48.540;9.268;2023-10-13T03:38:06;97469.25;;;13.30;100.00
5284;BME280;15377;48.540;9.268;2023-10-13T03:40:50;97469.25;;;13.30;100.00
5284;BME280;15377;48.540;9.268;2023-10-13T03:43:32;97472.28;;;13.32;100.00
5284;BME280;15377;48.540;9.268;2023-10-13T03:46:00;97468.75;;;13.32;100.00
5284;BME280;15377;48.540;9.268;2023-10-13T03:48:33;97468.91;;;13.23;100.00
5284;BME280;15377;48.540;9.268;2023-10-13T03:51:06;97468.91;;;13.23;100.00
5284;BME280;15377;48.540;9.268;2023-10-13T03:53:35;97463.00;;;13.10;100.00
5284;BME280;15377;48.540;9.268;2023-10-13T03:56:02;97465.66;;;12.99;100.00
5284;BME280;15377;48.540;9.268;2023-10-13T03:58:37;97466.53;;;12.90;100.00
5284;BME280;15377;48.540;9.268;2023-10-13T04:01:04;97466.03;;;12.92;100.00
5284;BME280;15377;48.540;9.268;2023-10-13T04:03:31;97471.44;;;13.01;100.00
5284;BME280;15377;48.540;9.268;2023-10-13T04:06:01;97455.97;;;13.09;100.00
5284;BME280;15377;48.540;9.268;2023-10-13T04:08:43;97452.97;;;13.12;100.00
5284;BME280;15377;48.540;9.268;2023-10-13T04:11:08;97462.31;;;13.15;100.00
5284;BME280;15377;48.540;9.268;2023-10-13T04:13:53;97453.56;;;12.96;100.00
5284;BME280;15377;48.540;9.268;2023-10-13T04:16:37;97446.44;;;12.90;100.00
5284;BME280;15377;48.540;9.268;2023-10-13T04:19:17;97459.78;;;12.91;100.00
5284;BME280;15377;48.540;9.268;2023-10-13T04:21:50;97460.25;;;12.90;100.00
5284;BME280;15377;48.540;9.268;2023-10-13T04:24:23;97458.47;;;12.87;100.00
5284;BME280;15377;48.540;9.268;2023-10-13T04:27:00;97449.88;;;12.85;100.00
5284;BME280;15377;48.540;9.268;2023-10-13T04:29:38;97452.28;;;12.72;100.00
5284;BME280;15377;48.540;9.268;2023-10-13T04:32:36;97457.25;;;12.48;100.00
5284;BME280;15377;48.540;9.268;2023-10-13T04:35:07;97454.91;;;12.41;100.00
5284;BME280;15377;48.540;9.268;2023-10-13T04:37:43;97460.53;;;12.52;100.00
5284;BME280;15377;48.540;9.268;2023-10-13T04:40:27;97452.31;;;12.57;100.00
5284;BME280;15377;48.540;9.268;2023-10-13T04:42:53;97450.06;;;12.56;100.00
5284;BME280;15377;48.540;9.268;2023-10-13T04:45:21;97446.34;;;12.59;100.00
5284;BME280;15377;48.540;9.268;2023-10-13T04:48:00;97448.31;;;12.58;100.00
5284;BME280;15377;48.540;9.268;2023-10-13T04:50:46;97411.41;;;12.36;100.00
5284;BME280;15377;48.540;9.268;2023-10-13T04:53:16;97440.38;;;12.46;100.00
5284;BME280;15377;48.540;9.268;2023-10-13T04:56:20;97434.47;;;12.33;100.00
5284;BME280;15377;48.540;9.268;2023-10-13T04:59:04;97437.06;;;12.22;100.00
5284;BME280;15377;48.540;9.268;2023-10-13T05:01:48;97438.03;;;12.19;100.00
5284;BME280;15377;48.540;9.268;2023-10-13T05:04:22;97427.00;;;12.19;100.00
5284;BME280;15377;48.540;9.268;2023-10-13T05:07:03;97426.03;;;12.22;100.00
5284;BME280;15377;48.540;9.268;2023-10-13T05:09:49;97431.28;;;12.20;100.00
5284;BME280;15377;48.540;9.268;2023-10-13T05:12:33;97426.94;;;12.13;100.00
5284;BME280;15377;48.540;9.268;2023-10-13T05:15:18;97425.13;;;12.10;100.00
5284;BME280;15377;48.540;9.268;2023-10-13T05:18:03;97419.41;;;12.14;100.00
5284;BME280;15377;48.540;9.268;2023-10-13T05:20:47;97426.16;;;12.13;100.00
5284;BME280;15377;48.540;9.268;2023-10-13T05:23:31;97418.34;;;11.91;100.00
5284;BME280;15377;48.540;9.268;2023-10-13T05:26:15;97419.25;;;12.03;100.00
5284;BME280;15377;48.540;9.268;2023-10-13T05:28:59;97429.34;;;12.26;100.00
5284;BME280;15377;48.540;9.268;2023-10-13T05:31:43;97422.47;;;12.16;100.00
5284;BME280;15377;48.540;9.268;2023-10-13T05:34:27;97429.53;;;12.02;100.00
5284;BME280;15377;48.540;9.268;2023-10-13T05:37:11;97421.78;;;11.86;100.00
5284;BME280;15377;48.540;9.268;2023-10-13T05:39:54;97427.78;;;11.85;100.00
5284;BME280;15377;48.540;9.268;2023-10-13T05:42:52;97420.31;;;11.71;100.00
5284;BME280;15377;48.540;9.268;2023-10-13T05:45:36;97433.19;;;11.79;100.00
5284;BME280;15377;48.540;9.268;2023-10-13T05:48:24;97426.94;;;11.79;100.00
5284;BME280;15377;48.540;9.268;2023-10-13T05:51:07;97424.56;;;11.72;100.00
5284;BME280;15377;48.540;9.268;2023-10-13T05:54:05;97430.16;;;11.77;100.00
5284;BME280;15377;48.540;9.268;2023-10-13T05:56:39;97425.56;;;11.89;100.00
5284;BME280;15377;48.540;9.268;2023-10-13T05:59:23;97428.72;;;11.96;100.00
5284;BME280;15377;48.540;9.268;2023-10-13T06:02:07;97421.38;;;11.93;100.00
5284;BME280;15377;48.540;9.268;2023-10-13T06:04:51;97425.31;;;11.87;100.00
5284;BME280;15377;48.540;9.268;2023-10-13T06:07:35;97421.50;;;11.84;100.00
5284;BME280;15377;48.540;9.268;2023-10-13T06:10:19;97413.81;;;11.74;100.00
5284;BME280;15377;48.540;9.268;2023-10-13T06:13:03;97428.94;;;11.78;100.00
5284;BME280;15377;48.540;9.268;2023-10-13T06:15:47;97421.81;;;11.72;100.00
5284;BME280;15377;48.540;9.268;2023-10-13T06:18:31;97432.13;;;11.91;100.00
5284;BME280;15377;48.540;9.268;2023-10-13T06:21:15;97425.91;;;12.11;100.00
5284;BME280;15377;48.540;9.268;2023-10-13T06:23:58;97430.09;;;12.26;100.00
5284;BME280;15377;48.540;9.268;2023-10-13T06:26:42;97425.28;;;12.41;100.00
5284;BME280;15377;48.540;9.268;2023-10-13T06:29:26;97430.75;;;12.56;100.00
5284;BME280;15377;48.540;9.268;2023-10-13T06:31:52;97439.16;;;12.67;100.00
5284;BME280;15377;48.540;9.268;2023-10-13T06:34:17;97438.16;;;12.70;100.00
5284;BME280;15377;48.540;9.268;2023-10-13T06:36:46;97435.75;;;12.77;100.00
5284;BME280;15377;48.540;9.268;2023-10-13T06:39:12;97428.78;;;12.82;100.00
5284;BME280;15377;48.540;9.268;2023-10-13T06:41:56;97431.00;;;12.98;100.00
5284;BME280;15377;48.540;9.268;2023-10-13T06:44:22;97430.00;;;13.01;100.00
5284;BME280;15377;48.540;9.268;2023-10-13T06:46:47;97434.66;;;13.15;100.00
5284;BME280;15377;48.540;9.268;2023-10-13T06:49:15;97428.28;;;13.29;100.00
5284;BME280;15377;48.540;9.268;2023-10-13T06:51:43;97443.00;;;13.46;100.00
5284;BME280;15377;48.540;9.268;2023-10-13T06:54:11;97441.91;;;13.63;100.00
5284;BME280;15377;48.540;9.268;2023-10-13T06:56:44;97449.03;;;13.75;100.00
5284;BME280;15377;48.540;9.268;2023-10-13T06:59:11;97448.13;;;13.89;100.00
5284;BME280;15377;48.540;9.268;2023-10-13T07:01:40;97444.66;;;13.94;100.00
5284;BME280;15377;48.540;9.268;2023-10-13T07:04:09;97443.16;;;13.99;100.00
5284;BME280;15377;48.540;9.268;2023-10-13T07:06:42;97459.38;;;14.17;100.00
5284;BME280;15377;48.540;9.268;2023-10-13T07:09:10;97450.09;;;14.20;100.00
5284;BME280;15377;48.540;9.268;2023-10-13T07:11:58;97442.09;;;14.22;100.00
5284;BME280;15377;48.540;9.268;2023-10-13T07:14:26;97453.00;;;14.42;100.00
5284;BME280;15377;48.540;9.268;2023-10-13T07:16:56;97457.59;;;14.56;100.00
5284;BME280;15377;48.540;9.268;2023-10-13T07:19:26;97454.91;;;14.72;100.00
5284;BME280;15377;48.540;9.268;2023-10-13T07:21:55;97453.44;;;14.87;100.00
5284;BME280;15377;48.540;9.268;2023-10-13T07:24:27;97452.72;;;14.98;100.00
5284;BME280;15377;48.540;9.268;2023-10-13T07:26:58;97452.50;;;15.01;100.00
5284;BME280;15377;48.540;9.268;2023-10-13T07:29:33;97457.56;;;15.25;100.00
5284;BME280;15377;48.540;9.268;2023-10-13T07:32:02;97444.97;;;15.29;100.00
5284;BME280;15377;48.540;9.268;2023-10-13T07:34:31;97451.84;;;15.50;100.00
5284;BME280;15377;48.540;9.268;2023-10-13T07:37:00;97444.28;;;15.67;100.00
5284;BME280;15377;48.540;9.268;2023-10-13T07:39:30;97452.34;;;15.98;100.00
5284;BME280;15377;48.540;9.268;2023-10-13T07:41:59;97453.06;;;16.26;100.00
5284;BME280;15377;48.540;9.268;2023-10-13T07:44:32;97450.78;;;16.41;100.00
5284;BME280;15377;48.540;9.268;2023-10-13T07:47:02;97445.72;;;16.45;100.00
5284;BME280;15377;48.540;9.268;2023-10-13T07:49:31;97450.47;;;16.61;100.00
5284;BME280;15377;48.540;9.268;2023-10-13T07:52:00;97442.56;;;16.76;100.00
5284;BME280;15377;48.540;9.268;2023-10-13T07:54:42;97437.69;;;16.93;100.00
5284;BME280;15377;48.540;9.268;2023-10-13T07:57:07;97440.75;;;16.95;100.00
5284;BME280;15377;48.540;9.268;2023-10-13T07:59:33;97443.69;;;17.08;100.00
5284;BME280;15377;48.540;9.268;2023-10-13T08:02:00;97438.53;;;17.23;100.00
5284;BME280;15377;48.540;9.268;2023-10-13T08:04:37;97446.72;;;17.51;100.00
5284;BME280;15377;48.540;9.268;2023-10-13T08:07:02;97437.59;;;17.56;100.00
5284;BME280;15377;48.540;9.268;2023-10-13T08:09:41;97431.47;;;17.63;100.00
5284;BME280;15377;48.540;9.268;2023-10-13T08:12:09;97438.28;;;17.67;100.00
5284;BME280;15377;48.540;9.268;2023-10-13T08:14:37;97429.16;;;17.67;100.00
5284;BME280;15377;48.540;9.268;2023-10-13T08:17:06;97438.06;;;17.89;100.00
5284;BME280;15377;48.540;9.268;2023-10-13T08:19:34;97442.28;;;18.25;100.00
5284;BME280;15377;48.540;9.268;2023-10-13T08:22:08;97440.00;;;18.53;100.00
5284;BME280;15377;48.540;9.268;2023-10-13T08:24:46;97438.00;;;18.72;100.00
5284;BME280;15377;48.540;9.268;2023-10-13T08:27:13;97437.94;;;18.96;100.00
5284;BME280;15377;48.540;9.268;2023-10-13T08:29:57;97439.19;;;19.19;100.00
5284;BME280;15377;48.540;9.268;2023-10-13T08:32:29;97432.53;;;19.40;100.00
5284;BME280;15377;48.540;9.268;2023-10-13T08:34:58;97437.00;;;19.62;100.00
5284;BME280;15377;48.540;9.268;2023-10-13T08:37:28;97432.16;;;19.81;100.00
5284;BME280;15377;48.540;9.268;2023-10-13T08:39:55;97419.56;;;20.06;100.00
5284;BME280;15377;48.540;9.268;2023-10-13T08:45:15;97413.72;;;21.21;100.00
5284;BME280;15377;48.540;9.268;2023-10-13T08:47:57;97414.09;;;23.11;98.24
5284;BME280;15377;48.540;9.268;2023-10-13T08:50:46;97415.44;;;24.65;78.00
5284;BME280;15377;48.540;9.268;2023-10-13T08:53:15;97418.84;;;25.18;73.31
5284;BME280;15377;48.540;9.268;2023-10-13T08:58:35;97416.94;;;27.17;64.55
5284;BME280;15377;48.540;9.268;2023-10-13T09:01:26;97417.03;;;27.79;61.47
5284;BME280;15377;48.540;9.268;2023-10-13T09:04:20;97407.22;;;28.71;59.24
5284;BME280;15377;48.540;9.268;2023-10-13T09:09:49;97409.59;;;30.40;50.36
5284;BME280;15377;48.540;9.268;2023-10-13T09:12:21;97404.88;;;31.38;44.93
5284;BME280;15377;48.540;9.268;2023-10-13T09:15:00;97398.00;;;32.08;42.90
5284;BME280;15377;48.540;9.268;2023-10-13T09:20:19;97395.88;;;32.54;41.64
5284;BME280;15377;48.540;9.268;2023-10-13T09:23:13;97402.31;;;32.77;43.54
5284;BME280;15377;48.540;9.268;2023-10-13T09:25:49;97383.97;;;32.80;43.72
5284;BME280;15377;48.540;9.268;2023-10-13T09:28:29;97397.59;;;33.18;43.15
5284;BME280;15377;48.540;9.268;2023-10-13T09:30:56;97391.38;;;33.72;36.25
5284;BME280;15377;48.540;9.268;2023-10-13T09:33:26;97402.41;;;33.77;40.15
5284;BME280;15377;48.540;9.268;2023-10-13T09:36:15;97387.63;;;33.81;41.34
5284;BME280;15377;48.540;9.268;2023-10-13T09:38:42;97381.69;;;33.77;38.91
5284;BME280;15377;48.540;9.268;2023-10-13T09:41:29;97375.03;;;34.51;36.16
5284;BME280;15377;48.540;9.268;2023-10-13T09:43:57;97361.47;;;34.52;33.95
5284;BME280;15377;48.540;9.268;2023-10-13T09:46:26;97364.84;;;34.48;35.50
5284;BME280;15377;48.540;9.268;2023-10-13T09:49:13;97367.72;;;34.48;32.46
5284;BME280;15377;48.540;9.268;2023-10-13T09:51:48;97349.09;;;34.74;31.83
5284;BME280;15377;48.540;9.268;2023-10-13T09:54:19;97351.28;;;34.62;32.51
5284;BME280;15377;48.540;9.268;2023-10-13T09:56:58;97354.59;;;34.43;31.42
5284;BME280;15377;48.540;9.268;2023-10-13T09:59:48;97346.22;;;34.07;32.75
5284;BME280;15377;48.540;9.268;2023-10-13T10:02:18;97349.81;;;33.19;31.79
5284;BME280;15377;48.540;9.268;2023-10-13T10:04:54;97338.81;;;33.63;32.32
5284;BME280;15377;48.540;9.268;2023-10-13T10:07:27;97346.91;;;32.80;32.50
5284;BME280;15377;48.540;9.268;2023-10-13T10:09:58;97345.97;;;32.18;35.58
5284;BME280;15377;48.540;9.268;2023-10-13T10:15:26;97326.69;;;30.32;38.16
5284;BME280;15377;48.540;9.268;2023-10-13T10:17:56;97322.91;;;29.38;43.01
5284;BME280;15377;48.540;9.268;2023-10-13T10:20:32;97330.31;;;28.74;41.52
5284;BME280;15377;48.540;9.268;2023-10-13T10:23:05;97329.69;;;28.38;42.42
5284;BME280;15377;48.540;9.268;2023-10-13T10:25:31;97322.44;;;27.99;43.47
5284;BME280;15377;48.540;9.268;2023-10-13T10:28:07;97320.59;;;27.84;44.37
5284;BME280;15377;48.540;9.268;2023-10-13T10:30:34;97313.66;;;27.59;43.28
5284;BME280;15377;48.540;9.268;2023-10-13T10:33:01;97307.25;;;27.32;39.48
5284;BME280;15377;48.540;9.268;2023-10-13T10:35:33;97310.06;;;27.23;43.39
5284;BME280;15377;48.540;9.268;2023-10-13T10:41:04;97310.13;;;27.15;41.59
5284;BME280;15377;48.540;9.268;2023-10-13T10:46:27;97288.34;;;27.08;43.47
5284;BME280;15377;48.540;9.268;2023-10-13T10:48:55;97294.69;;;27.16;41.12
5284;BME280;15377;48.540;9.268;2023-10-13T10:51:21;97286.03;;;27.14;37.90
5284;BME280;15377;48.540;9.268;2023-10-13T10:53:48;97282.53;;;27.23;36.20
5284;BME280;15377;48.540;9.268;2023-10-13T10:56:17;97280.06;;;27.37;35.65
5284;BME280;15377;48.540;9.268;2023-10-13T10:58:49;97276.41;;;27.53;37.05
5284;BME280;15377;48.540;9.268;2023-10-13T11:01:23;97281.31;;;27.52;36.09
5284;BME280;15377;48.540;9.268;2023-10-13T11:03:57;97272.75;;;27.69;34.82
5284;BME280;15377;48.540;9.268;2023-10-13T11:06:26;97276.47;;;27.72;37.04
5284;BME280;15377;48.540;9.268;2023-10-13T11:09:04;97257.53;;;27.55;34.48
5284;BME280;15377;48.540;9.268;2023-10-13T11:11:44;97264.78;;;27.49;36.44
5284;BME280;15377;48.540;9.268;2023-10-13T11:14:23;97263.28;;;27.48;35.82
5284;BME280;15377;48.540;9.268;2023-10-13T11:16:49;97253.59;;;27.42;35.97
5284;BME280;15377;48.540;9.268;2023-10-13T11:19:33;97257.81;;;27.50;37.77
5284;BME280;15377;48.540;9.268;2023-10-13T11:22:19;97257.28;;;27.70;35.79
5284;BME280;15377;48.540;9.268;2023-10-13T11:25:25;97260.38;;;27.65;35.69
5284;BME280;15377;48.540;9.268;2023-10-13T11:28:10;97253.84;;;27.72;35.22
5284;BME280;15377;48.540;9.268;2023-10-13T11:30:43;97251.00;;;27.72;34.19
5284;BME280;15377;48.540;9.268;2023-10-13T11:33:14;97238.38;;;27.73;35.42
5284;BME280;15377;48.540;9.268;2023-10-13T11:35:43;97240.81;;;27.86;35.37
5284;BME280;15377;48.540;9.268;2023-10-13T11:38:19;97238.38;;;27.73;34.78
5284;BME280;15377;48.540;9.268;2023-10-13T11:40:58;97231.22;;;27.72;35.09
5284;BME280;15377;48.540;9.268;2023-10-13T11:43:32;97231.78;;;27.61;35.76
5284;BME280;15377;48.540;9.268;2023-10-13T11:46:13;97234.34;;;27.66;35.39
5284;BME280;15377;48.540;9.268;2023-10-13T11:48:41;97223.50;;;27.72;34.63
5284;BME280;15377;48.540;9.268;2023-10-13T11:51:09;97221.00;;;27.76;34.68
5284;BME280;15377;48.540;9.268;2023-10-13T11:53:43;97212.69;;;27.78;36.01
5284;BME280;15377;48.540;9.268;2023-10-13T11:56:10;97215.34;;;27.76;36.44
5284;BME280;15377;48.540;9.268;2023-10-13T11:58:40;97206.84;;;27.76;35.46
5284;BME280;15377;48.540;9.268;2023-10-13T12:01:06;97193.84;;;27.64;35.96
5284;BME280;15377;48.540;9.268;2023-10-13T12:03:49;97197.13;;;27.70;35.21
5284;BME280;15377;48.540;9.268;2023-10-13T12:06:35;97195.19;;;27.63;36.74
5284;BME280;15377;48.540;9.268;2023-10-13T12:09:13;97184.03;;;27.55;35.73
5284;BME280;15377;48.540;9.268;2023-10-13T12:11:44;97185.06;;;27.60;36.56
5284;BME280;15377;48.540;9.268;2023-10-13T12:14:16;97181.50;;;27.69;35.33
5284;BME280;15377;48.540;9.268;2023-10-13T12:16:55;97168.84;;;27.60;35.76
5284;BME280;15377;48.540;9.268;2023-10-13T12:19:24;97176.44;;;27.67;35.02
5284;BME280;15377;48.540;9.268;2023-10-13T12:21:50;97165.94;;;27.77;35.94
5284;BME280;15377;48.540;9.268;2023-10-13T12:24:22;97163.97;;;27.80;35.98
5284;BME280;15377;48.540;9.268;2023-10-13T12:27:08;97162.97;;;27.85;36.03
5284;BME280;15377;48.540;9.268;2023-10-13T12:30:00;97157.63;;;27.89;35.54
5284;BME280;15377;48.540;9.268;2023-10-13T12:32:33;97159.69;;;27.98;36.08
5284;BME280;15377;48.540;9.268;2023-10-13T12:34:59;97138.53;;;27.89;36.22
5284;BME280;15377;48.540;9.268;2023-10-13T12:37:42;97129.16;;;27.87;36.21
5284;BME280;15377;48.540;9.268;2023-10-13T12:40:09;97137.97;;;27.91;35.61
5284;BME280;15377;48.540;9.268;2023-10-13T12:42:54;97121.28;;;27.95;35.56
5284;BME280;15377;48.540;9.268;2023-10-13T12:45:42;97131.84;;;28.04;35.48
5284;BME280;15377;48.540;9.268;2023-10-13T12:48:26;97127.69;;;28.05;35.61
5284;BME280;15377;48.540;9.268;2023-10-13T12:51:10;97132.75;;;27.97;36.23
5284;BME280;15377;48.540;9.268;2023-10-13T12:53:51;97118.28;;;27.93;35.71
5284;BME280;15377;48.540;9.268;2023-10-13T12:56:18;97114.25;;;27.96;36.37
5284;BME280;15377;48.540;9.268;2023-10-13T12:58:51;97115.78;;;27.97;35.79
5284;BME280;15377;48.540;9.268;2023-10-13T13:01:20;97113.97;;;27.92;36.04
5284;BME280;15377;48.540;9.268;2023-10-13T13:03:49;97115.16;;;27.98;35.79
5284;BME280;15377;48.540;9.268;2023-10-13T13:06:19;97113.69;;;28.07;35.60
5284;BME280;15377;48.540;9.268;2023-10-13T13:08:51;97109.34;;;28.15;35.98
5284;BME280;15377;48.540;9.268;2023-10-13T13:11:17;97101.31;;;27.93;36.11
5284;BME280;15377;48.540;9.268;2023-10-13T13:13:42;97099.66;;;27.99;35.67
5284;BME280;15377;48.540;9.268;2023-10-13T13:16:08;97092.53;;;27.98;36.11
5284;BME280;15377;48.540;9.268;2023-10-13T13:18:33;97098.63;;;28.04;35.97
5284;BME280;15377;48.540;9.268;2023-10-13T13:20:59;97082.25;;;28.03;36.66
5284;BME280;15377;48.540;9.268;2023-10-13T13:23:26;97090.00;;;28.02;38.01
5284;BME280;15377;48.540;9.268;2023-10-13T13:25:52;97075.13;;;27.92;37.04
5284;BME280;15377;48.540;9.268;2023-10-13T13:28:18;97076.28;;;28.08;36.44
5284;BME280;15377;48.540;9.268;2023-10-13T13:30:44;97069.44;;;28.11;35.23
5284;BME280;15377;48.540;9.268;2023-10-13T13:33:09;97075.09;;;28.21;35.79
5284;BME280;15377;48.540;9.268;2023-10-13T13:35:37;97075.69;;;28.19;35.91
5284;BME280;15377;48.540;9.268;2023-10-13T13:38:02;97062.56;;;28.24;36.46
5284;BME280;15377;48.540;9.268;2023-10-13T13:40:37;97061.53;;;28.10;36.48
5284;BME280;15377;48.540;9.268;2023-10-13T13:43:02;97058.41;;;28.15;35.31
5284;BME280;15377;48.540;9.268;2023-10-13T13:45:28;97048.75;;;28.09;35.56
5284;BME280;15377;48.540;9.268;2023-10-13T13:47:53;97058.84;;;28.12;35.79
5284;BME280;15377;48.540;9.268;2023-10-13T13:50:23;97053.34;;;28.14;35.36
5284;BME280;15377;48.540;9.268;2023-10-13T13:52:56;97052.44;;;28.21;36.12
5284;BME280;15377;48.540;9.268;2023-10-13T13:55:22;97045.28;;;28.20;35.13
5284;BME280;15377;48.540;9.268;2023-10-13T13:57:49;97037.09;;;28.24;36.25
5284;BME280;15377;48.540;9.268;2023-10-13T14:00:16;97042.44;;;28.20;35.88
5284;BME280;15377;48.540;9.268;2023-10-13T14:02:43;97040.97;;;28.19;35.39